createdAt,value
2022-09-17T00:00:00.000Z,81.96
2022-09-17T00:15:00.000Z,81.91
2022-09-17T00:30:00.000Z,81.58
2022-09-17T00:45:00.000Z,81.83
2022-09-17T01:00:00.000Z,82.43
2022-09-17T01:15:00.000Z,82.56
2022-09-17T01:30:00.000Z,84.16
2022-09-17T01:45:00.000Z,83.35
2022-09-17T02:00:00.000Z,81.75
2022-09-17T02:15:00.000Z,80.82
2022-09-17T02:30:00.000Z,80.42
2022-09-17T02:45:00.000Z,79.92
2022-09-17T03:00:00.000Z,79.87
2022-09-17T03:15:00.000Z,80.28
2022-09-17T03:30:00.000Z,80.56
2022-09-17T03:45:00.000Z,77.63
2022-09-17T04:00:00.000Z,76.08
2022-09-17T04:15:00.000Z,76.34
2022-09-17T04:30:00.000Z,75.99
2022-09-17T04:45:00.000Z,76.48
2022-09-17T05:00:00.000Z,78.51
2022-09-17T05:15:00.000Z,78.84
2022-09-17T05:30:00.000Z,78.48
2022-09-17T05:45:00.000Z,78.22
2022-09-17T06:00:00.000Z,76.76
2022-09-17T06:15:00.000Z,73.53
2022-09-17T06:30:00.000Z,71.1
2022-09-17T06:45:00.000Z,70.93
2022-09-17T07:00:00.000Z,72.26
2022-09-17T07:15:00.000Z,72.49
2022-09-17T07:30:00.000Z,73.96
2022-09-17T07:45:00.000Z,74.47
2022-09-17T08:00:00.000Z,72.31
2022-09-17T08:15:00.000Z,69.65
2022-09-17T08:30:00.000Z,67.73
2022-09-17T08:45:00.000Z,65.47
2022-09-17T09:00:00.000Z,62.85
2022-09-17T09:15:00.000Z,63.04
2022-09-17T09:30:00.000Z,65.39
2022-09-17T09:45:00.000Z,61.86
2022-09-17T10:00:00.000Z,58.69
2022-09-17T10:15:00.000Z,54.93
2022-09-17T10:30:00.000Z,57.51
2022-09-17T10:45:00.000Z,59.09
2022-09-17T11:00:00.000Z,63.99
2022-09-17T11:15:00.000Z,74.01
2022-09-17T11:30:00.000Z,79
2022-09-17T11:45:00.000Z,78.59
2022-09-17T12:00:00.000Z,76.98
2022-09-17T12:15:00.000Z,78.52
2022-09-17T12:30:00.000Z,78.75
2022-09-17T12:45:00.000Z,77.52
2022-09-17T13:00:00.000Z,77.77
2022-09-17T13:15:00.000Z,78.75
2022-09-17T13:30:00.000Z,80.02
2022-09-17T13:45:00.000Z,78.92
2022-09-17T14:00:00.000Z,78.05
2022-09-17T14:15:00.000Z,77
2022-09-17T14:30:00.000Z,77.49
2022-09-17T14:45:00.000Z,77.28
2022-09-17T15:00:00.000Z,78.59
2022-09-17T15:15:00.000Z,78.3
2022-09-17T15:30:00.000Z,75.66
2022-09-17T15:45:00.000Z,76.04
2022-09-17T16:00:00.000Z,77.28
2022-09-17T16:15:00.000Z,75.81
2022-09-17T16:30:00.000Z,74.1
2022-09-17T16:45:00.000Z,77.23
2022-09-17T17:00:00.000Z,79.7
2022-09-17T17:15:00.000Z,79.78
2022-09-17T17:30:00.000Z,81.64
2022-09-17T17:45:00.000Z,81.74
2022-09-17T18:00:00.000Z,80.58
2022-09-17T18:15:00.000Z,77.85
2022-09-17T18:30:00.000Z,76.62
2022-09-17T18:45:00.000Z,76.28
2022-09-17T19:00:00.000Z,76.48
2022-09-17T19:15:00.000Z,74.97
2022-09-17T19:30:00.000Z,71.94
2022-09-17T19:45:00.000Z,72.21
2022-09-17T20:00:00.000Z,72.04
2022-09-17T20:15:00.000Z,72.74
2022-09-17T20:30:00.000Z,73.41
2022-09-17T20:45:00.000Z,73.55
2022-09-17T21:00:00.000Z,72.48
2022-09-17T21:15:00.000Z,71.41
2022-09-17T21:30:00.000Z,73.64
2022-09-17T21:45:00.000Z,76.97
2022-09-17T22:00:00.000Z,78.08
2022-09-17T22:15:00.000Z,78.59
2022-09-17T22:30:00.000Z,80.31
2022-09-17T22:45:00.000Z,81.2
2022-09-17T23:00:00.000Z,80.73
2022-09-17T23:15:00.000Z,81.04
2022-09-17T23:30:00.000Z,81.08
2022-09-17T23:45:00.000Z,79.78
